Time;durP1;ratioP1;P1;durP2;ratioP2;P2;SDS_P1;SDS_P2;PMS_P1;PMS_P2;Temp;Humidity;BMP_temperature;BMP_pressure;BME280_temperature;BME280_humidity;BME280_pressure;Samples;Min_cycle;Max_cycle;Signal;HPM_P1;HPM_P2
2022/08/14 00:00:17;;;;;;;2.70;2.47;;;24.00;57.90;;;;;;5090260;28;20536;-66
2022/08/14 00:02:44;;;;;;;3.30;2.65;;;24.00;58.00;;;;;;5090034;28;20028;-66
2022/08/14 00:05:13;;;;;;;3.88;2.85;;;24.00;58.00;;;;;;5090099;28;20012;-66
2022/08/14 00:07:39;;;;;;;3.72;2.80;;;23.90;58.00;;;;;;5091373;28;20107;-65
2022/08/14 00:10:08;;;;;;;2.83;2.38;;;23.90;58.00;;;;;;5091424;28;20012;-65
2022/08/14 00:12:37;;;;;;;3.00;2.40;;;23.90;58.20;;;;;;5093737;28;20020;-66
2022/08/14 00:15:10;;;;;;;2.60;2.40;;;23.90;58.20;;;;;;5093300;28;20020;-65
2022/08/14 00:17:35;;;;;;;3.08;2.55;;;23.80;58.20;;;;;;5093715;28;20085;-66
2022/08/14 00:20:01;;;;;;;2.38;2.17;;;23.80;58.30;;;;;;5093275;28;20036;-65
2022/08/14 00:22:26;;;;;;;2.85;2.65;;;23.80;58.30;;;;;;5093832;28;20096;-65
2022/08/14 00:24:52;;;;;;;2.72;2.15;;;23.80;58.60;;;;;;5091831;28;20158;-66
2022/08/14 00:27:17;;;;;;;3.00;2.40;;;23.80;58.70;;;;;;5093367;28;20358;-65
2022/08/14 00:29:43;;;;;;;2.40;2.20;;;23.70;58.90;;;;;;5092705;28;20020;-65
2022/08/14 00:32:08;;;;;;;2.70;2.50;;;23.70;58.90;;;;;;5093278;28;20529;-65
2022/08/14 00:34:34;;;;;;;4.15;2.50;;;23.70;59.00;;;;;;5093409;28;20035;-66
2022/08/14 00:37:00;;;;;;;2.75;2.40;;;23.60;59.00;;;;;;5093176;28;20019;-65
2022/08/14 00:39:25;;;;;;;3.67;3.00;;;23.60;59.20;;;;;;5093262;28;20058;-65
2022/08/14 00:41:51;;;;;;;3.75;3.08;;;23.60;59.60;;;;;;5092666;28;20048;-65
2022/08/14 00:44:17;;;;;;;3.75;2.92;;;23.60;59.80;;;;;;5091866;28;20473;-65
2022/08/14 00:46:44;;;;;;;3.75;2.72;;;23.50;59.80;;;;;;5106180;28;20042;-65
2022/08/14 00:49:11;;;;;;;4.80;2.80;;;23.60;60.00;;;;;;5091801;28;20016;-65
2022/08/14 00:51:37;;;;;;;3.60;3.30;;;23.50;60.20;;;;;;5093141;28;20393;-65
2022/08/14 00:54:03;;;;;;;7.53;2.63;;;23.40;60.30;;;;;;5092816;28;20012;-65
2022/08/14 00:56:29;;;;;;;3.13;2.65;;;23.40;60.20;;;;;;5093307;28;20055;-65
2022/08/14 00:58:58;;;;;;;3.10;2.80;;;23.40;60.20;;;;;;5090308;28;20048;-66
2022/08/14 01:01:24;;;;;;;3.03;2.72;;;23.40;60.30;;;;;;5097319;28;20016;-66
2022/08/14 01:03:51;;;;;;;4.43;2.60;;;23.40;60.30;;;;;;5104066;28;20078;-65
2022/08/14 01:06:17;;;;;;;3.10;2.83;;;23.30;60.50;;;;;;5092850;28;20024;-65
2022/08/14 01:08:43;;;;;;;3.20;2.90;;;23.30;60.60;;;;;;5092494;28;20367;-65
2022/08/14 01:11:14;;;;;;;4.93;2.67;;;23.30;60.80;;;;;;5089879;28;20414;-66
2022/08/14 01:13:43;;;;;;;2.90;2.60;;;23.20;60.80;;;;;;5094073;28;20062;-65
2022/08/14 01:16:12;;;;;;;7.15;2.53;;;23.20;60.90;;;;;;5092289;28;20083;-65
2022/08/14 01:21:37;;;;;;;4.30;2.60;;;23.20;61.00;;;;;;5092044;28;20073;-65
2022/08/14 01:24:06;;;;;;;3.13;2.65;;;23.20;61.00;;;;;;5092105;28;20020;-65
2022/08/14 01:26:34;;;;;;;4.45;2.50;;;23.10;61.00;;;;;;5092342;28;20024;-65
2022/08/14 01:29:01;;;;;;;2.55;2.35;;;23.10;61.10;;;;;;5091719;28;20416;-65
2022/08/14 01:31:30;;;;;;;2.88;2.30;;;23.10;61.10;;;;;;5074377;28;20114;-65
2022/08/14 01:33:57;;;;;;;;;;;23.10;61.20;;;;;;5091598;28;20020;-65
2022/08/14 01:36:25;;;;;;;2.92;2.60;;;23.00;61.10;;;;;;5091992;28;19931;-65
2022/08/14 01:38:56;;;;;;;3.53;2.30;;;22.90;61.30;;;;;;5102460;28;20016;-65
2022/08/14 01:41:23;;;;;;;4.22;2.75;;;23.00;61.30;;;;;;5096863;28;20398;-65
2022/08/14 01:44:01;;;;;;;4.80;2.03;;;22.90;61.20;;;;;;5090892;28;20024;-65
2022/08/14 01:46:33;;;;;;;2.90;2.58;;;22.90;61.20;;;;;;5088968;28;20012;-65
2022/08/14 01:49:00;;;;;;;2.78;2.47;;;22.90;61.30;;;;;;5089754;28;20070;-65
2022/08/14 01:51:27;;;;;;;2.88;2.60;;;22.90;61.60;;;;;;5085685;28;20019;-65
2022/08/14 01:54:08;;;;;;;3.28;2.97;;;22.90;61.60;;;;;;5091763;28;20016;-65
2022/08/14 01:56:37;;;;;;;2.50;2.30;;;22.90;61.70;;;;;;5090687;28;20051;-65
2022/08/14 01:59:18;;;;;;;3.05;2.75;;;22.80;61.70;;;;;;5091529;28;20012;-65
2022/08/14 02:01:46;;;;;;;4.55;3.17;;;22.80;62.10;;;;;;5074053;28;20060;-65
2022/08/14 02:04:11;;;;;;;3.72;2.45;;;22.70;62.00;;;;;;5090396;28;20062;-65
2022/08/14 02:06:37;;;;;;;3.00;2.70;;;22.70;62.10;;;;;;5089510;28;20427;-65
2022/08/14 02:09:07;;;;;;;2.92;2.60;;;22.70;62.10;;;;;;5091062;28;20027;-65
2022/08/14 02:11:34;;;;;;;3.92;2.50;;;22.70;62.10;;;;;;5091522;28;20043;-65
2022/08/14 02:14:11;;;;;;;2.83;2.58;;;22.70;62.10;;;;;;5089794;28;20028;-65
2022/08/14 02:16:39;;;;;;;2.58;2.17;;;22.60;62.10;;;;;;5087483;28;20107;-66
2022/08/14 02:19:14;;;;;;;5.68;2.80;;;22.60;62.20;;;;;;5088706;28;20020;-65
2022/08/14 02:21:42;;;;;;;2.92;2.63;;;22.60;62.20;;;;;;5090895;28;20550;-66
2022/08/14 02:24:09;;;;;;;2.72;2.50;;;22.50;62.30;;;;;;5078112;28;20020;-65
2022/08/14 02:26:38;;;;;;;2.67;2.47;;;22.50;62.50;;;;;;5091092;28;20056;-65
2022/08/14 02:29:13;;;;;;;4.07;2.78;;;22.40;62.60;;;;;;5089733;28;20020;-65
2022/08/14 02:31:41;;;;;;;3.22;2.90;;;22.40;62.90;;;;;;5097607;28;20028;-65
2022/08/14 02:34:28;;;;;;;3.28;3.00;;;22.40;63.20;;;;;;5104307;28;20432;-65
2022/08/14 02:36:58;;;;;;;3.38;3.08;;;22.30;63.30;;;;;;5089781;28;20031;-65
2022/08/14 02:39:25;;;;;;;3.30;3.00;;;22.20;63.70;;;;;;5090642;28;20457;-65
2022/08/14 02:41:51;;;;;;;3.58;3.28;;;22.20;64.10;;;;;;5090903;28;20028;-65
2022/08/14 02:44:20;;;;;;;3.60;3.28;;;22.20;64.40;;;;;;5090956;28;20028;-65
2022/08/14 02:46:46;;;;;;;3.70;3.33;;;22.10;64.80;;;;;;5088273;28;20016;-65
2022/08/14 02:49:12;;;;;;;4.00;3.58;;;22.10;65.20;;;;;;5090925;28;20017;-65
2022/08/14 02:51:40;;;;;;;3.78;3.30;;;22.00;65.50;;;;;;5091074;28;20021;-65
2022/08/14 02:54:07;;;;;;;4.40;3.45;;;22.00;65.80;;;;;;5088625;28;20496;-65
2022/08/14 02:56:34;;;;;;;3.35;3.05;;;21.90;65.70;;;;;;5090893;28;20019;-65
2022/08/14 02:59:00;;;;;;;3.72;3.42;;;21.90;65.80;;;;;;5090756;28;20015;-66
2022/08/14 03:01:27;;;;;;;4.30;3.35;;;21.90;66.00;;;;;;5103449;28;20044;-65
2022/08/14 03:03:54;;;;;;;3.80;3.40;;;21.80;66.00;;;;;;5090759;28;20012;-65
2022/08/14 03:06:22;;;;;;;3.83;3.50;;;21.80;66.10;;;;;;5090258;28;20395;-65
2022/08/14 03:08:48;;;;;;;4.03;3.63;;;21.70;66.10;;;;;;5090687;28;20347;-65
2022/08/14 03:11:14;;;;;;;4.07;3.67;;;21.70;66.30;;;;;;5090747;28;20035;-65
2022/08/14 03:13:43;;;;;;;5.10;3.50;;;21.70;66.40;;;;;;5090759;28;20028;-66
2022/08/14 03:16:13;;;;;;;4.68;3.90;;;21.70;66.60;;;;;;5084651;28;20025;-65
2022/08/14 03:18:41;;;;;;;4.25;3.85;;;21.60;66.70;;;;;;5090159;28;20028;-65
2022/08/14 03:21:12;;;;;;;4.72;4.32;;;21.60;66.80;;;;;;5087280;28;20028;-65
2022/08/14 03:23:40;;;;;;;4.47;4.05;;;21.50;67.00;;;;;;5090587;28;20036;-65
2022/08/14 03:26:08;;;;;;;3.90;3.50;;;21.50;67.10;;;;;;5090616;28;20016;-65
2022/08/14 03:28:34;;;;;;;4.50;4.10;;;21.40;67.30;;;;;;5088076;28;20012;-65
2022/08/14 03:31:00;;;;;;;4.43;4.03;;;21.40;67.50;;;;;;5090980;28;20515;-65
2022/08/14 03:33:27;;;;;;;4.53;4.13;;;21.30;67.50;;;;;;5087731;28;20038;-65
2022/08/14 03:35:53;;;;;;;5.20;4.70;;;21.40;67.80;;;;;;5088894;28;20116;-65
2022/08/14 03:38:19;;;;;;;4.40;4.00;;;21.30;68.10;;;;;;5087562;28;20107;-65
2022/08/14 03:40:49;;;;;;;5.60;4.60;;;21.30;68.30;;;;;;5076531;28;20119;-65
2022/08/14 03:43:15;;;;;;;5.00;4.50;;;21.20;68.50;;;;;;5093015;28;20095;-65
2022/08/14 03:45:41;;;;;;;4.93;4.40;;;21.20;68.70;;;;;;5092913;28;20064;-65
2022/08/14 03:48:14;;;;;;;4.75;4.35;;;21.10;69.00;;;;;;5093804;28;20410;-65
2022/08/14 03:50:40;;;;;;;4.70;4.30;;;21.10;69.30;;;;;;5080331;28;20027;-65
2022/08/14 03:53:05;;;;;;;5.47;4.97;;;21.10;69.50;;;;;;5094159;28;20078;-65
2022/08/14 03:55:31;;;;;;;4.93;4.50;;;21.00;69.60;;;;;;5090874;28;20509;-65
2022/08/14 03:57:57;;;;;;;4.60;4.20;;;21.00;69.80;;;;;;5094130;28;20031;-65
2022/08/14 04:00:23;;;;;;;6.20;4.38;;;21.00;69.90;;;;;;5093796;28;20024;-65
2022/08/14 04:02:49;;;;;;;5.45;4.95;;;20.90;69.90;;;;;;5093553;28;20470;-65
2022/08/14 04:05:14;;;;;;;5.25;4.75;;;20.90;70.00;;;;;;5091614;28;20114;-65
2022/08/14 04:07:40;;;;;;;4.72;4.22;;;20.90;70.00;;;;;;5094209;28;20283;-65
2022/08/14 04:10:07;;;;;;;5.85;5.20;;;20.80;70.00;;;;;;5089503;28;20058;-65
2022/08/14 04:12:32;;;;;;;6.05;5.45;;;20.80;70.10;;;;;;5094038;28;20040;-65
2022/08/14 04:14:58;;;;;;;4.63;4.22;;;20.80;70.30;;;;;;5093831;28;20473;-65
2022/08/14 04:17:25;;;;;;;5.18;4.68;;;20.70;70.50;;;;;;5089236;28;20491;-65
2022/08/14 04:19:51;;;;;;;4.93;4.53;;;20.70;70.70;;;;;;5075305;28;20024;-65
2022/08/14 04:22:19;;;;;;;6.57;5.05;;;20.70;70.80;;;;;;5093563;28;20023;-65
2022/08/14 04:24:45;;;;;;;5.93;5.40;;;20.70;70.90;;;;;;5093466;28;20236;-65
2022/08/14 04:27:12;;;;;;;6.15;5.20;;;20.60;70.90;;;;;;5093443;28;20099;-65
2022/08/14 04:29:42;;;;;;;7.57;5.40;;;20.60;71.20;;;;;;5093659;28;20024;-65
2022/08/14 04:32:09;;;;;;;5.72;5.07;;;20.60;71.40;;;;;;5093447;28;20554;-66
2022/08/14 04:34:39;;;;;;;5.45;4.93;;;20.60;71.60;;;;;;5090532;28;20020;-65
2022/08/14 04:45:20;;;;;;;5.63;5.13;;;20.40;72.70;;;;;;5092491;28;20035;-65
2022/08/14 04:50:30;;;;;;;6.57;5.97;;;20.40;73.10;;;;;;5090388;28;20081;-65
2022/08/14 04:52:55;;;;;;;7.32;6.63;;;20.40;73.40;;;;;;5092188;28;20032;-65
2022/08/14 04:55:21;;;;;;;7.03;6.32;;;20.40;74.70;;;;;;5102575;28;20028;-65
2022/08/14 04:57:47;;;;;;;7.57;6.88;;;20.40;74.20;;;;;;5093222;28;20484;-66
2022/08/14 05:00:13;;;;;;;7.63;6.90;;;20.40;74.60;;;;;;5092659;28;20046;-65
2022/08/14 05:02:39;;;;;;;7.05;6.45;;;20.40;75.10;;;;;;5092928;28;20462;-65
2022/08/14 05:05:04;;;;;;;6.97;6.30;;;20.30;75.20;;;;;;5092287;28;20020;-65
2022/08/14 05:07:30;;;;;;;6.55;5.95;;;20.30;75.30;;;;;;5078382;28;20012;-65
2022/08/14 05:09:56;;;;;;;7.15;6.55;;;20.30;75.40;;;;;;5090084;28;20027;-65
2022/08/14 05:12:21;;;;;;;7.05;6.45;;;20.40;75.60;;;;;;5092769;28;20396;-65
2022/08/14 05:14:47;;;;;;;7.60;6.80;;;20.40;75.70;;;;;;5092559;28;20079;-65
2022/08/14 05:17:12;;;;;;;8.10;7.32;;;20.40;75.90;;;;;;5074799;28;20443;-65
2022/08/14 05:19:38;;;;;;;8.05;7.00;;;20.40;76.30;;;;;;5089563;28;20099;-65
2022/08/14 05:22:04;;;;;;;7.32;6.63;;;20.40;76.50;;;;;;5091660;28;20306;-65
2022/08/14 05:24:30;;;;;;;8.95;7.03;;;20.40;76.60;;;;;;5073115;28;20027;-65
2022/08/14 05:26:55;;;;;;;8.77;7.88;;;20.40;76.70;;;;;;5092491;28;20012;-65
2022/08/14 05:29:21;;;;;;;7.13;6.43;;;20.40;76.90;;;;;;5092470;28;20106;-65
2022/08/14 05:31:46;;;;;;;7.50;6.80;;;20.40;77.00;;;;;;5089732;28;20016;-66
2022/08/14 05:34:12;;;;;;;7.78;7.07;;;20.40;77.00;;;;;;5096661;28;20020;-66
2022/08/14 05:36:38;;;;;;;8.60;7.80;;;20.40;77.10;;;;;;5089347;28;20016;-65
2022/08/14 05:39:03;;;;;;;8.20;7.50;;;20.50;77.40;;;;;;5091830;28;20146;-66
2022/08/14 05:41:30;;;;;;;9.68;8.57;;;20.50;77.70;;;;;;5091920;28;20067;-65
2022/08/14 05:43:55;;;;;;;9.55;8.65;;;20.50;78.00;;;;;;5091930;28;20027;-66
2022/08/14 05:46:21;;;;;;;9.43;7.75;;;20.50;78.20;;;;;;5090760;28;20020;-65
2022/08/14 05:48:52;;;;;;;10.40;8.35;;;20.60;78.20;;;;;;5091785;28;20012;-65
2022/08/14 05:51:19;;;;;;;9.30;8.40;;;20.60;78.30;;;;;;5091682;28;20481;-65
2022/08/14 05:53:45;;;;;;;8.80;7.97;;;20.60;78.40;;;;;;5076330;28;20037;-65
2022/08/14 05:56:11;;;;;;;11.27;9.10;;;20.60;78.60;;;;;;5092361;28;20085;-65
2022/08/14 05:58:37;;;;;;;9.07;8.18;;;20.70;78.70;;;;;;5093178;28;20169;-65
2022/08/14 06:01:03;;;;;;;8.93;7.68;;;20.70;78.80;;;;;;5091795;28;20024;-66
2022/08/14 06:03:28;;;;;;;9.25;8.15;;;20.70;78.90;;;;;;5076846;28;20119;-65
2022/08/14 06:05:54;;;;;;;9.07;8.25;;;20.80;78.90;;;;;;5092409;28;20450;-65
2022/08/14 06:08:29;;;;;;;10.85;9.35;;;20.80;79.20;;;;;;5092935;28;20070;-65
2022/08/14 06:11:02;;;;;;;10.00;9.00;;;20.80;79.50;;;;;;5092308;28;20028;-66
2022/08/14 06:13:32;;;;;;;10.73;9.32;;;20.80;79.80;;;;;;5092478;28;20024;-65
2022/08/14 06:15:58;;;;;;;10.63;9.73;;;20.90;79.80;;;;;;5091929;28;20056;-65
2022/08/14 06:18:24;;;;;;;9.45;8.55;;;20.90;79.90;;;;;;5091383;28;20060;-65
2022/08/14 06:20:50;;;;;;;8.95;8.15;;;21.00;79.80;;;;;;5089893;28;20060;-66
2022/08/14 06:23:16;;;;;;;9.40;8.50;;;21.00;79.70;;;;;;5090538;28;20523;-66
2022/08/14 06:25:43;;;;;;;9.90;7.68;;;21.10;79.70;;;;;;5090928;28;20066;-65
2022/08/14 06:28:15;;;;;;;8.13;7.43;;;21.10;79.50;;;;;;5091671;28;20012;-65
2022/08/14 06:30:41;;;;;;;8.10;7.35;;;21.20;79.40;;;;;;5083323;28;20498;-65
2022/08/14 06:33:06;;;;;;;8.05;7.25;;;21.20;79.30;;;;;;5091470;28;20039;-65
2022/08/14 06:35:32;;;;;;;8.45;7.65;;;21.30;79.30;;;;;;5090898;28;20055;-65
2022/08/14 06:37:59;;;;;;;8.73;7.93;;;21.40;79.30;;;;;;5090968;28;20050;-65
2022/08/14 06:40:31;;;;;;;8.63;7.82;;;21.40;79.40;;;;;;5090765;28;20044;-65
2022/08/14 06:43:04;;;;;;;6.78;6.18;;;21.50;79.30;;;;;;5090882;28;20474;-65
2022/08/14 06:45:32;;;;;;;8.32;6.20;;;21.50;79.10;;;;;;5085671;28;20062;-66
2022/08/14 06:47:57;;;;;;;8.48;6.63;;;21.60;79.00;;;;;;5090877;28;20016;-65
2022/08/14 06:50:32;;;;;;;6.05;5.47;;;21.60;78.70;;;;;;5087080;28;20370;-65
2022/08/14 06:52:58;;;;;;;6.15;5.20;;;21.70;78.40;;;;;;5090661;28;20020;-65
2022/08/14 06:55:26;;;;;;;6.47;5.88;;;21.80;78.10;;;;;;5088204;28;20016;-66
2022/08/14 06:57:51;;;;;;;7.82;6.07;;;21.90;77.40;;;;;;5072759;28;20024;-65
2022/08/14 07:00:20;;;;;;;6.10;5.50;;;22.00;76.50;;;;;;5090774;28;20549;-65
2022/08/14 07:05:49;;;;;;;6.57;5.63;;;22.20;75.80;;;;;;5087878;28;20077;-65
2022/08/14 07:08:21;;;;;;;6.35;5.75;;;22.20;75.40;;;;;;5089921;28;20020;-65
2022/08/14 07:10:49;;;;;;;8.48;7.40;;;22.40;74.70;;;;;;5090701;28;20389;-65
2022/08/14 07:13:17;;;;;;;6.63;6.00;;;22.50;74.30;;;;;;5090426;28;20028;-66
2022/08/14 07:15:49;;;;;;;7.50;6.70;;;22.60;74.00;;;;;;5087482;28;20075;-65
2022/08/14 07:18:18;;;;;;;8.15;6.32;;;22.70;73.30;;;;;;5091497;28;20274;-65
2022/08/14 07:20:44;;;;;;;10.50;6.13;;;22.80;72.50;;;;;;5087936;28;20035;-65
2022/08/14 07:23:10;;;;;;;7.07;6.47;;;22.90;72.00;;;;;;5089260;28;20395;-65
2022/08/14 07:25:42;;;;;;;5.63;5.13;;;23.00;71.60;;;;;;5096043;28;20024;-66
2022/08/14 07:28:16;;;;;;;5.28;4.78;;;23.20;71.10;;;;;;5095687;28;20016;-65
2022/08/14 07:30:42;;;;;;;6.30;5.70;;;23.30;71.80;;;;;;5096318;28;20473;-65
2022/08/14 07:33:09;;;;;;;7.30;5.82;;;23.30;71.20;;;;;;5095500;28;20020;-65
2022/08/14 07:35:36;;;;;;;5.30;4.80;;;23.40;71.10;;;;;;5096220;28;20032;-66
2022/08/14 07:38:03;;;;;;;5.97;5.38;;;23.50;70.00;;;;;;5095660;28;20062;-65
2022/08/14 07:40:28;;;;;;;5.43;4.90;;;23.70;70.10;;;;;;5094540;28;20051;-65
2022/08/14 07:42:54;;;;;;;5.05;4.60;;;23.70;70.00;;;;;;5095887;28;20036;-65
2022/08/14 07:45:20;;;;;;;5.97;5.38;;;23.80;69.90;;;;;;5095668;28;20017;-65
2022/08/14 07:47:46;;;;;;;7.43;5.78;;;23.80;69.40;;;;;;5093762;28;20564;-65
2022/08/14 07:50:21;;;;;;;7.28;5.40;;;23.90;68.40;;;;;;5095283;28;20028;-66
2022/08/14 07:52:48;;;;;;;5.78;5.28;;;24.10;68.10;;;;;;5084334;28;20024;-65
2022/08/14 07:55:15;;;;;;;6.07;5.40;;;24.10;68.20;;;;;;5093228;28;20042;-66
2022/08/14 07:57:43;;;;;;;5.97;5.30;;;24.20;68.10;;;;;;5094416;28;20110;-66
2022/08/14 08:00:15;;;;;;;5.97;5.40;;;24.30;67.40;;;;;;5074967;28;20027;-65
2022/08/14 08:02:43;;;;;;;5.90;5.30;;;24.40;67.30;;;;;;5085348;28;20020;-66
2022/08/14 08:05:11;;;;;;;7.18;6.47;;;24.60;66.30;;;;;;5092885;28;20020;-66
2022/08/14 08:07:38;;;;;;;8.93;5.97;;;24.60;65.60;;;;;;5095601;28;20101;-66
2022/08/14 08:10:30;;;;;;;5.20;4.70;;;24.70;65.20;;;;;;5090313;28;20062;-66
2022/08/14 08:12:59;;;;;;;5.45;4.95;;;24.90;65.80;;;;;;5093614;28;20035;-65
2022/08/14 08:15:27;;;;;;;6.63;5.90;;;25.00;65.30;;;;;;5092941;28;20477;-66
2022/08/14 08:17:53;;;;;;;6.10;5.00;;;25.10;64.90;;;;;;5093682;28;20028;-66
2022/08/14 08:20:23;;;;;;;5.50;4.68;;;25.20;65.10;;;;;;5090220;28;20025;-65
2022/08/14 08:22:54;;;;;;;4.63;4.22;;;25.20;65.50;;;;;;5087602;28;20031;-66
2022/08/14 08:25:20;;;;;;;5.30;4.80;;;25.30;65.40;;;;;;5074998;28;20032;-66
2022/08/14 08:28:02;;;;;;;5.07;4.60;;;25.40;65.30;;;;;;5087064;28;20032;-66
2022/08/14 08:30:30;;;;;;;5.10;4.60;;;25.50;65.00;;;;;;5074984;28;20032;-66
2022/08/14 08:32:57;;;;;;;6.35;4.97;;;25.60;64.90;;;;;;5074975;28;20021;-65
2022/08/14 08:35:25;;;;;;;6.28;5.03;;;25.70;64.60;;;;;;5073885;28;20020;-66
2022/08/14 08:37:52;;;;;;;7.65;4.97;;;25.80;64.00;;;;;;5086497;28;20042;-66
2022/08/14 08:40:27;;;;;;;6.20;4.75;;;25.80;63.40;;;;;;5085667;28;20484;-65
2022/08/14 08:42:53;;;;;;;5.25;4.75;;;26.00;63.30;;;;;;5080625;28;20024;-66
2022/08/14 08:45:20;;;;;;;4.78;4.38;;;26.00;63.00;;;;;;5093325;28;20081;-66
2022/08/14 08:47:49;;;;;;;5.47;4.93;;;26.10;62.80;;;;;;5093235;28;20042;-66
2022/08/14 08:50:23;;;;;;;5.60;4.28;;;26.20;62.10;;;;;;5090392;28;20028;-66
2022/08/14 08:52:50;;;;;;;5.38;4.68;;;26.30;62.30;;;;;;5093522;28;20028;-66
2022/08/14 08:55:23;;;;;;;6.97;5.00;;;26.40;62.40;;;;;;5090091;28;20030;-66
2022/08/14 08:57:57;;;;;;;5.60;5.00;;;26.50;61.90;;;;;;5092939;28;20489;-66
2022/08/14 09:00:23;;;;;;;5.47;4.97;;;26.60;61.70;;;;;;5090473;28;20028;-66
2022/08/14 09:03:02;;;;;;;5.15;4.65;;;26.70;61.70;;;;;;5092677;28;20035;-66
2022/08/14 09:05:28;;;;;;;5.70;5.20;;;26.80;61.20;;;;;;5087350;28;20023;-66
2022/08/14 09:07:53;;;;;;;5.75;4.90;;;26.90;61.30;;;;;;5092496;28;20050;-66
2022/08/14 09:10:19;;;;;;;8.07;6.40;;;26.90;60.60;;;;;;5092354;28;20052;-66
2022/08/14 09:12:45;;;;;;;6.10;5.50;;;27.00;60.70;;;;;;5091647;28;20027;-66
2022/08/14 09:15:11;;;;;;;6.65;5.50;;;27.10;61.00;;;;;;5087909;28;20012;-66
2022/08/14 09:17:37;;;;;;;5.47;4.93;;;27.20;61.90;;;;;;5092812;28;20390;-66
2022/08/14 09:20:03;;;;;;;5.75;5.10;;;27.30;61.90;;;;;;5089392;28;20012;-66
2022/08/14 09:22:29;;;;;;;6.88;6.10;;;27.30;61.80;;;;;;5089745;28;20443;-66
2022/08/14 09:24:56;;;;;;;5.65;5.15;;;27.50;61.90;;;;;;5088336;28;20059;-66
2022/08/14 09:27:21;;;;;;;6.10;5.30;;;27.50;61.90;;;;;;5092408;28;20034;-66
2022/08/14 09:29:47;;;;;;;5.53;5.00;;;27.60;62.10;;;;;;5086245;28;20020;-66
2022/08/14 09:32:19;;;;;;;5.68;5.13;;;27.70;61.60;;;;;;5091311;28;20036;-66
2022/08/14 09:35:02;;;;;;;5.97;4.95;;;27.80;61.30;;;;;;5092810;28;20028;-66
2022/08/14 09:38:08;;;;;;;5.50;5.00;;;27.90;60.80;;;;;;5093039;28;20024;-66
2022/08/14 09:41:09;;;;;;;5.60;5.10;;;28.00;60.50;;;;;;5079665;28;20051;-66
2022/08/14 09:44:14;;;;;;;7.15;5.30;;;28.10;60.40;;;;;;5088439;28;20404;-66
2022/08/14 09:46:50;;;;;;;6.03;5.43;;;28.20;59.30;;;;;;5089472;28;20054;-66
2022/08/14 09:49:16;;;;;;;5.95;5.07;;;28.20;59.40;;;;;;5085952;28;20087;-66
2022/08/14 09:51:43;;;;;;;7.60;4.97;;;28.30;59.50;;;;;;5088959;28;20473;-66
2022/08/14 09:54:10;;;;;;;6.43;5.78;;;28.40;59.40;;;;;;5088188;28;20020;-67
2022/08/14 09:56:49;;;;;;;5.13;4.63;;;28.50;59.20;;;;;;5089380;28;20043;-66
2022/08/14 09:59:21;;;;;;;6.78;5.60;;;28.60;59.00;;;;;;5090928;28;20028;-66
2022/08/14 10:01:47;;;;;;;6.53;5.93;;;28.70;58.90;;;;;;5090430;28;20039;-66
2022/08/14 10:04:19;;;;;;;6.03;5.10;;;28.70;58.50;;;;;;5091777;28;20016;-66
2022/08/14 10:06:45;;;;;;;5.80;5.30;;;28.90;58.60;;;;;;5089491;28;20534;-66
2022/08/14 10:09:11;;;;;;;5.40;4.88;;;29.00;58.30;;;;;;5091593;28;20020;-66
2022/08/14 10:11:39;;;;;;;5.45;4.95;;;29.10;55.20;;;;;;5088568;28;20026;-66
2022/08/14 10:14:15;;;;;;;5.72;5.20;;;29.10;55.90;;;;;;5091869;28;20020;-66
2022/08/14 10:16:43;;;;;;;5.25;4.75;;;29.30;56.40;;;;;;5090766;28;20031;-66
2022/08/14 10:19:12;;;;;;;5.18;4.68;;;29.40;55.70;;;;;;5091297;28;20050;-67
2022/08/14 10:21:39;;;;;;;5.38;4.43;;;29.50;55.00;;;;;;5088314;28;20032;-66
2022/08/14 10:24:08;;;;;;;4.95;4.53;;;29.60;54.60;;;;;;5089132;28;20377;-66
2022/08/14 10:26:34;;;;;;;;;;;29.70;54.70;;;;;;5083965;28;20012;-66
2022/08/14 10:29:10;;;;;;;5.25;4.78;;;29.80;54.60;;;;;;5091285;28;20395;-66
2022/08/14 10:31:36;;;;;;;4.63;4.07;;;29.90;53.70;;;;;;5089670;28;20016;-66
2022/08/14 10:34:06;;;;;;;5.38;4.43;;;30.10;53.40;;;;;;5091478;28;20028;-66
2022/08/14 10:36:35;;;;;;;4.72;4.32;;;30.20;53.10;;;;;;5090506;28;20048;-66
2022/08/14 10:39:06;;;;;;;4.18;3.83;;;30.40;52.90;;;;;;5089955;28;20073;-66
2022/08/14 10:41:38;;;;;;;4.70;4.30;;;30.50;52.90;;;;;;5087590;28;20090;-66
2022/08/14 10:44:08;;;;;;;4.00;3.60;;;30.70;52.60;;;;;;5086419;28;20034;-66
2022/08/14 10:46:45;;;;;;;4.93;4.45;;;30.80;51.50;;;;;;5085000;28;20017;-66
2022/08/14 10:49:22;;;;;;;4.32;3.65;;;30.90;49.20;;;;;;5078324;28;20016;-66
2022/08/14 10:52:06;;;;;;;4.03;3.63;;;30.90;49.40;;;;;;5083897;28;20023;-66
2022/08/14 10:54:41;;;;;;;4.75;4.35;;;31.10;50.20;;;;;;5089126;28;20558;-66
2022/08/14 10:57:29;;;;;;;4.65;3.65;;;31.10;48.00;;;;;;5092157;28;20035;-66
2022/08/14 10:59:58;;;;;;;5.13;3.92;;;31.20;48.10;;;;;;5078718;28;20028;-66
2022/08/14 11:02:34;;;;;;;3.22;2.92;;;31.30;48.30;;;;;;5079282;28;20039;-67
2022/08/14 11:05:12;;;;;;;4.00;3.60;;;31.60;48.70;;;;;;5092378;28;20064;-66
2022/08/14 11:07:57;;;;;;;4.43;3.63;;;31.80;48.00;;;;;;5091897;28;20012;-66
2022/08/14 11:10:44;;;;;;;3.80;3.40;;;32.00;46.90;;;;;;5091107;28;20081;-66
2022/08/14 11:13:15;;;;;;;4.03;3.10;;;32.20;47.20;;;;;;5090389;28;20143;-67
2022/08/14 11:16:02;;;;;;;3.30;3.00;;;32.40;47.30;;;;;;5088161;28;20090;-66
2022/08/14 11:18:29;;;;;;;3.63;3.33;;;32.70;46.70;;;;;;5082073;28;20532;-67
2022/08/14 11:20:58;;;;;;;2.97;2.78;;;32.80;45.60;;;;;;5087006;28;20059;-67
2022/08/14 11:23:31;;;;;;;;;;;33.00;45.70;;;;;;5087534;28;20023;-67
2022/08/14 11:26:01;;;;;;;2.97;2.78;;;33.20;45.60;;;;;;5087541;28;19981;-67
2022/08/14 11:28:31;;;;;;;2.42;2.20;;;33.50;45.60;;;;;;5084158;28;20041;-67
2022/08/14 11:30:59;;;;;;;4.85;2.60;;;33.70;45.30;;;;;;5089359;28;20016;-67
2022/08/14 11:33:29;;;;;;;2.47;2.20;;;33.90;44.70;;;;;;5090242;28;20059;-67
2022/08/14 11:35:59;;;;;;;4.65;3.10;;;34.20;44.30;;;;;;5084024;28;20037;-67
2022/08/14 11:38:25;;;;;;;3.92;3.63;;;34.40;43.40;;;;;;5079919;28;20524;-67
2022/08/14 11:40:50;;;;;;;3.95;3.65;;;34.30;42.10;;;;;;5086856;28;20498;-67
2022/08/14 11:43:17;;;;;;;7.18;3.83;;;33.90;42.20;;;;;;5088368;28;20077;-67
2022/08/14 11:46:01;;;;;;;3.60;3.30;;;33.50;42.20;;;;;;5091018;28;20012;-67
2022/08/14 11:48:28;;;;;;;3.05;2.67;;;33.40;42.70;;;;;;5083730;28;20028;-67
2022/08/14 11:50:53;;;;;;;3.47;3.13;;;33.60;43.10;;;;;;5090788;28;20515;-67
2022/08/14 11:53:27;;;;;;;3.30;3.10;;;33.80;43.00;;;;;;5090408;28;20503;-67
2022/08/14 11:56:01;;;;;;;3.67;2.80;;;34.20;43.20;;;;;;5084414;28;20030;-67
2022/08/14 11:58:30;;;;;;;3.70;3.40;;;34.60;42.50;;;;;;5079593;28;20112;-67
2022/08/14 12:01:01;;;;;;;2.85;2.65;;;34.70;41.50;;;;;;5085570;28;20091;-67
2022/08/14 12:03:40;;;;;;;3.03;2.83;;;35.00;42.00;;;;;;5079444;28;20411;-67
2022/08/14 12:06:32;;;;;;;2.90;2.70;;;35.20;41.80;;;;;;5086342;28;20115;-67
2022/08/14 12:08:58;;;;;;;2.92;2.72;;;35.40;41.80;;;;;;5088469;28;20020;-67
2022/08/14 12:11:23;;;;;;;3.30;2.42;;;35.60;42.50;;;;;;5077938;28;20095;-67
2022/08/14 12:13:49;;;;;;;2.50;2.30;;;35.90;42.00;;;;;;5095293;28;20389;-67
2022/08/14 12:16:15;;;;;;;2.72;2.53;;;36.20;41.40;;;;;;5095186;28;20024;-67
2022/08/14 12:18:47;;;;;;;2.90;2.70;;;36.50;41.10;;;;;;5089714;28;20024;-67
2022/08/14 12:21:18;;;;;;;3.17;2.85;;;36.70;40.50;;;;;;5095288;28;20023;-67
2022/08/14 12:23:46;;;;;;;3.30;3.00;;;36.80;39.70;;;;;;5081869;28;20024;-67
2022/08/14 12:26:43;;;;;;;2.58;2.38;;;36.90;39.90;;;;;;5094502;28;20102;-67
2022/08/14 12:29:10;;;;;;;3.00;2.80;;;37.20;39.80;;;;;;5093713;28;20028;-67
2022/08/14 12:31:56;;;;;;;2.40;2.22;;;37.20;38.70;;;;;;5093916;28;20027;-67
2022/08/14 12:34:22;;;;;;;2.83;2.50;;;37.50;39.10;;;;;;5092657;28;20024;-67
2022/08/14 12:36:47;;;;;;;3.63;3.22;;;37.70;38.60;;;;;;5094309;28;20043;-67
2022/08/14 12:39:22;;;;;;;3.13;2.92;;;37.90;39.20;;;;;;5091399;28;20016;-67
2022/08/14 12:42:15;;;;;;;;;;;;;;;;;;;;;
2022/08/14 12:44:43;;;;;;;3.22;2.92;;;38.20;38.20;;;;;;5079021;28;20024;-67
2022/08/14 12:47:13;;;;;;;4.18;3.30;;;38.40;38.20;;;;;;5093953;28;20046;-67
2022/08/14 12:49:53;;;;;;;3.03;2.83;;;38.50;38.20;;;;;;5092591;28;20024;-67
2022/08/14 12:52:33;;;;;;;2.88;2.67;;;38.60;38.10;;;;;;5091627;28;20445;-67
2022/08/14 12:55:19;;;;;;;4.13;3.30;;;38.80;38.10;;;;;;5092207;28;20017;-67
2022/08/14 12:57:46;;;;;;;3.50;3.20;;;38.60;37.80;;;;;;5085205;28;20028;-67
2022/08/14 13:00:21;;;;;;;2.85;2.65;;;38.50;37.80;;;;;;5087174;28;20078;-67
2022/08/14 13:02:52;;;;;;;3.72;2.70;;;38.50;37.80;;;;;;5093945;28;20032;-67
2022/08/14 13:05:29;;;;;;;2.83;2.63;;;38.50;37.70;;;;;;5091724;28;20043;-67
2022/08/14 13:07:56;;;;;;;2.80;2.60;;;38.70;37.80;;;;;;5088645;28;20016;-67
2022/08/14 13:10:22;;;;;;;5.80;3.20;;;38.80;37.80;;;;;;5105584;28;20121;-67
2022/08/14 13:12:53;;;;;;;3.17;2.88;;;39.00;37.80;;;;;;5093379;28;20028;-67
2022/08/14 13:15:18;;;;;;;2.90;2.70;;;39.20;37.70;;;;;;5089738;28;20393;-67